createdAt,value
2022-11-16T00:02:18.481Z,25.10
2022-11-16T00:04:47.802Z,25.10
2022-11-16T00:07:17.147Z,25.10
2022-11-16T00:09:46.529Z,25.10
2022-11-16T00:12:15.755Z,25.10
2022-11-16T00:14:45.036Z,25.10
2022-11-16T00:17:14.303Z,25.10
2022-11-16T00:19:43.554Z,25.10
2022-11-16T00:22:12.810Z,25.20
2022-11-16T00:24:42.350Z,25.20
2022-11-16T00:27:11.550Z,25.20
2022-11-16T00:29:40.808Z,25.10
2022-11-16T00:32:10.068Z,25.20
2022-11-16T00:34:39.379Z,25.20
2022-11-16T00:37:08.712Z,25.20
2022-11-16T00:39:37.906Z,25.30
2022-11-16T00:42:07.145Z,25.30
2022-11-16T00:44:36.407Z,25.20
2022-11-16T00:47:05.690Z,25.30
2022-11-16T00:49:35.024Z,25.30
2022-11-16T00:52:04.257Z,25.30
2022-11-16T00:54:33.606Z,25.30
2022-11-16T00:57:03.033Z,25.30
2022-11-16T00:59:32.343Z,25.40
2022-11-16T01:02:01.620Z,25.40
2022-11-16T01:04:30.855Z,25.40
2022-11-16T01:07:00.148Z,25.50
2022-11-16T01:09:29.649Z,25.50
2022-11-16T01:12:14.296Z,25.60
2022-11-16T01:14:46.623Z,25.60
2022-11-16T01:17:16.551Z,25.60
2022-11-16T01:19:45.911Z,25.70
2022-11-16T01:22:15.373Z,25.70
2022-11-16T01:24:44.808Z,25.80
2022-11-16T01:27:14.308Z,25.80
2022-11-16T01:29:50.848Z,25.90
2022-11-16T01:32:20.192Z,25.90
2022-11-16T01:34:49.506Z,26.00
2022-11-16T01:37:21.270Z,26.00
2022-11-16T01:39:52.117Z,26.00
2022-11-16T01:42:28.209Z,26.10
2022-11-16T01:45:01.894Z,26.20
2022-11-16T01:47:31.389Z,26.20
2022-11-16T01:50:07.954Z,26.30
2022-11-16T01:52:41.055Z,26.30
2022-11-16T01:55:11.376Z,26.40
2022-11-16T01:57:44.246Z,26.40
2022-11-16T02:00:14.782Z,26.40
2022-11-16T02:02:45.197Z,26.50
2022-11-16T02:05:18.737Z,26.50
2022-11-16T02:08:16.531Z,26.60
2022-11-16T02:10:57.817Z,26.60
2022-11-16T02:13:36.775Z,26.70
2022-11-16T02:16:27.555Z,26.70
2022-11-16T02:19:19.141Z,26.70
2022-11-16T02:22:00.739Z,26.70
2022-11-16T02:24:31.918Z,26.80
2022-11-16T02:27:14.632Z,26.80
2022-11-16T02:29:55.048Z,26.90
2022-11-16T02:32:29.728Z,26.90
2022-11-16T02:35:04.799Z,27.00
2022-11-16T02:37:38.780Z,27.10
2022-11-16T02:40:12.845Z,27.10
2022-11-16T02:42:47.900Z,27.30
2022-11-16T02:45:26.345Z,27.30
2022-11-16T02:47:59.270Z,27.30
2022-11-16T02:50:30.695Z,27.30
2022-11-16T02:53:00.099Z,27.40
2022-11-16T02:55:32.122Z,27.40
2022-11-16T02:58:03.351Z,27.50
2022-11-16T03:00:38.998Z,27.50
2022-11-16T03:03:29.377Z,27.50
2022-11-16T03:06:13.010Z,27.50
2022-11-16T03:08:51.376Z,27.50
2022-11-16T03:11:40.369Z,27.60
2022-11-16T03:14:15.161Z,27.70
2022-11-16T03:16:50.486Z,27.70
2022-11-16T03:19:26.945Z,27.70
2022-11-16T03:22:00.343Z,27.70
2022-11-16T03:24:29.870Z,27.80
2022-11-16T03:27:12.665Z,27.80
2022-11-16T03:29:57.072Z,27.80
2022-11-16T03:32:34.835Z,27.80
2022-11-16T03:35:17.643Z,27.80
2022-11-16T03:37:49.262Z,27.80
2022-11-16T03:40:20.192Z,27.90
2022-11-16T03:42:51.421Z,27.90
2022-11-16T03:45:21.792Z,28.00
2022-11-16T03:47:51.111Z,28.00
2022-11-16T03:50:20.349Z,28.00
2022-11-16T03:52:49.709Z,28.10
2022-11-16T03:55:18.985Z,28.10
2022-11-16T03:57:48.196Z,28.10
2022-11-16T04:00:17.907Z,28.10
2022-11-16T04:02:47.248Z,28.20
2022-11-16T04:05:36.385Z,28.20
2022-11-16T04:08:25.242Z,28.30
2022-11-16T04:11:14.143Z,28.30
2022-11-16T04:14:08.941Z,28.40
2022-11-16T04:16:58.321Z,28.40
2022-11-16T04:19:47.133Z,28.40
2022-11-16T04:22:44.768Z,28.50
2022-11-16T04:25:20.413Z,28.50
2022-11-16T04:28:09.637Z,28.50
2022-11-16T04:30:58.641Z,28.50
2022-11-16T04:33:47.946Z,28.50
2022-11-16T04:36:37.181Z,28.50
2022-11-16T04:39:06.634Z,28.60
2022-11-16T04:41:55.982Z,28.60
2022-11-16T04:44:29.904Z,28.70
2022-11-16T04:47:15.869Z,28.70
2022-11-16T04:49:45.176Z,28.80
2022-11-16T04:52:14.546Z,28.80
2022-11-16T04:54:43.805Z,28.80
2022-11-16T04:57:13.153Z,28.80
2022-11-16T04:59:42.466Z,28.80
2022-11-16T05:02:16.953Z,28.90
2022-11-16T05:04:47.857Z,28.90
2022-11-16T05:07:19.077Z,28.90
2022-11-16T05:09:50.674Z,28.90
2022-11-16T05:12:23.580Z,29.00
2022-11-16T05:14:52.939Z,29.00
2022-11-16T05:17:22.548Z,29.00
2022-11-16T05:20:11.573Z,29.00
2022-11-16T05:22:41.391Z,29.10
2022-11-16T05:25:12.776Z,29.10
2022-11-16T05:27:42.768Z,29.10
2022-11-16T05:30:13.005Z,29.10
2022-11-16T05:32:42.926Z,29.10
2022-11-16T05:35:15.950Z,29.10
2022-11-16T05:37:47.899Z,29.20
2022-11-16T05:40:18.192Z,29.20
2022-11-16T05:42:48.173Z,29.30
2022-11-16T05:45:20.989Z,29.30
2022-11-16T05:47:57.205Z,29.30
2022-11-16T05:50:27.015Z,29.30
2022-11-16T05:52:57.051Z,29.30
2022-11-16T05:55:28.151Z,29.40
2022-11-16T05:57:58.230Z,29.40
2022-11-16T06:00:31.313Z,29.40
2022-11-16T06:03:04.610Z,29.40
2022-11-16T06:05:40.762Z,29.40
2022-11-16T06:08:14.290Z,29.50
2022-11-16T06:10:44.257Z,29.50
2022-11-16T06:13:17.339Z,29.50
2022-11-16T06:15:55.908Z,29.50
2022-11-16T06:18:26.232Z,29.50
2022-11-16T06:20:59.085Z,29.50
2022-11-16T06:23:28.995Z,29.50
2022-11-16T06:26:01.830Z,29.60
2022-11-16T06:28:31.529Z,29.70
2022-11-16T06:31:02.541Z,29.70
2022-11-16T06:33:34.210Z,29.80
2022-11-16T06:36:03.979Z,29.90
2022-11-16T06:38:35.458Z,30.00
2022-11-16T06:41:07.109Z,30.00
2022-11-16T06:43:36.730Z,30.10
2022-11-16T06:46:07.166Z,30.10
2022-11-16T06:48:37.099Z,30.10
2022-11-16T06:51:07.332Z,30.10
2022-11-16T06:53:37.903Z,30.10
2022-11-16T06:56:09.267Z,30.10
2022-11-16T06:58:42.639Z,30.10
2022-11-16T07:01:14.738Z,30.20
2022-11-16T07:03:45.216Z,30.20
2022-11-16T07:06:18.878Z,30.20
2022-11-16T07:08:48.415Z,30.20
2022-11-16T07:11:17.664Z,30.20
2022-11-16T07:13:47.533Z,30.20
2022-11-16T07:16:17.995Z,30.30
2022-11-16T07:18:49.059Z,30.30
2022-11-16T07:21:23.612Z,30.40
2022-11-16T07:23:53.958Z,30.30
2022-11-16T07:26:24.046Z,30.30
2022-11-16T07:28:54.027Z,30.30
2022-11-16T07:31:27.168Z,30.40
2022-11-16T07:33:57.028Z,30.40
2022-11-16T07:36:26.642Z,30.50
2022-11-16T07:38:56.308Z,30.50
2022-11-16T07:41:37.330Z,30.50
2022-11-16T07:44:11.778Z,30.50
2022-11-16T07:46:47.204Z,30.60
2022-11-16T07:49:20.410Z,30.60
2022-11-16T07:51:50.559Z,30.60
2022-11-16T07:54:21.748Z,30.60
2022-11-16T07:56:55.308Z,30.60
2022-11-16T07:59:25.120Z,30.60
2022-11-16T08:01:57.292Z,30.60
2022-11-16T08:04:29.849Z,30.60
2022-11-16T08:06:59.192Z,30.60
2022-11-16T08:09:29.043Z,30.70
2022-11-16T08:11:58.284Z,30.70
2022-11-16T08:14:27.677Z,30.80
2022-11-16T08:16:56.979Z,30.80
2022-11-16T08:19:26.201Z,30.80
2022-11-16T08:21:55.429Z,30.80
2022-11-16T08:24:24.863Z,30.80
2022-11-16T08:26:55.603Z,30.80
2022-11-16T08:29:24.934Z,30.80
2022-11-16T08:31:54.340Z,30.80
2022-11-16T08:34:23.652Z,30.80
2022-11-16T08:36:53.026Z,30.80
2022-11-16T08:39:22.313Z,30.80
2022-11-16T08:41:52.944Z,30.80
2022-11-16T08:44:22.129Z,30.90
2022-11-16T08:46:51.552Z,30.90
2022-11-16T08:49:20.911Z,30.90
2022-11-16T08:51:50.100Z,30.90
2022-11-16T08:54:19.310Z,30.80
2022-11-16T08:56:48.622Z,30.90
2022-11-16T08:59:17.900Z,30.80
2022-11-16T09:01:47.248Z,30.70
2022-11-16T09:04:16.518Z,30.70
2022-11-16T09:06:46.375Z,30.60
2022-11-16T09:09:15.763Z,30.60
2022-11-16T09:11:44.947Z,30.60
2022-11-16T09:14:14.189Z,30.50
2022-11-16T09:16:43.422Z,30.50
2022-11-16T09:19:12.720Z,30.50
2022-11-16T09:21:42.106Z,30.40
2022-11-16T09:24:11.696Z,30.40
2022-11-16T09:26:40.882Z,30.40
2022-11-16T09:29:13.472Z,30.40
2022-11-16T09:31:43.339Z,30.30
2022-11-16T09:34:12.748Z,30.30
2022-11-16T09:36:42.082Z,30.30
2022-11-16T09:39:30.081Z,30.20
2022-11-16T09:42:09.719Z,30.20
2022-11-16T09:45:05.892Z,30.20
2022-11-16T09:47:44.760Z,30.10
2022-11-16T09:53:40.687Z,30.00
2022-11-16T09:56:21.676Z,30.00
2022-11-16T09:58:58.431Z,29.90
2022-11-16T10:01:31.621Z,29.90
2022-11-16T10:04:24.984Z,29.90
2022-11-16T10:07:04.867Z,29.80
2022-11-16T10:09:34.665Z,29.70
2022-11-16T10:12:32.006Z,29.60
2022-11-16T10:15:16.606Z,29.50
2022-11-16T10:18:05.922Z,29.50
2022-11-16T10:20:52.451Z,29.30
2022-11-16T10:23:30.208Z,29.30
2022-11-16T10:26:21.902Z,29.20
2022-11-16T10:29:03.513Z,29.20
2022-11-16T10:31:56.080Z,29.10
2022-11-16T10:34:30.125Z,29.10
2022-11-16T10:37:05.497Z,29.00
2022-11-16T10:39:35.786Z,28.90
2022-11-16T10:42:12.829Z,28.90
2022-11-16T10:44:46.265Z,28.90
2022-11-16T10:47:38.225Z,28.80
2022-11-16T10:50:41.198Z,28.80
2022-11-16T10:53:16.402Z,28.70
2022-11-16T10:55:45.597Z,28.70
2022-11-16T10:58:14.832Z,28.70
2022-11-16T11:00:49.395Z,28.60
2022-11-16T11:03:33.216Z,28.60
2022-11-16T11:06:03.884Z,28.50
2022-11-16T11:08:33.735Z,28.50
2022-11-16T11:11:25.679Z,28.40
2022-11-16T11:14:16.776Z,28.40
2022-11-16T11:16:46.036Z,28.40
2022-11-16T11:19:28.927Z,28.30
2022-11-16T11:21:58.775Z,28.20
2022-11-16T11:24:43.798Z,28.20
2022-11-16T11:27:14.577Z,28.10
2022-11-16T11:29:45.533Z,28.10
2022-11-16T11:32:23.779Z,28.00
2022-11-16T11:34:55.904Z,28.00
2022-11-16T11:37:29.372Z,28.00
2022-11-16T11:40:18.600Z,28.00
2022-11-16T11:43:07.789Z,28.00
2022-11-16T11:45:46.712Z,28.00
2022-11-16T11:48:39.479Z,27.90
2022-11-16T11:51:24.557Z,27.90
2022-11-16T11:54:02.872Z,27.90
2022-11-16T11:56:35.482Z,27.80
2022-11-16T11:59:06.463Z,27.80
2022-11-16T12:02:14.869Z,27.80
2022-11-16T12:05:10.416Z,27.80
2022-11-16T12:07:55.949Z,27.80
2022-11-16T12:10:45.232Z,27.80
2022-11-16T12:13:34.696Z,27.70
2022-11-16T12:16:10.677Z,27.70
2022-11-16T12:19:07.127Z,27.60
2022-11-16T12:21:52.820Z,27.60
2022-11-16T12:24:43.106Z,27.60
2022-11-16T12:27:51.465Z,27.60
2022-11-16T12:30:23.980Z,27.60
2022-11-16T12:33:14.252Z,27.50
2022-11-16T12:35:48.027Z,27.50
2022-11-16T12:38:37.323Z,27.50
2022-11-16T12:41:27.039Z,27.50
2022-11-16T12:44:03.799Z,27.50
2022-11-16T12:46:53.309Z,27.40
2022-11-16T12:50:01.742Z,27.40
2022-11-16T12:53:00.343Z,27.30
2022-11-16T12:55:39.645Z,27.30
2022-11-16T12:58:48.022Z,27.20
2022-11-16T13:01:32.913Z,27.20
2022-11-16T13:04:23.808Z,27.30
2022-11-16T13:07:14.744Z,27.30
2022-11-16T13:09:51.001Z,27.30
2022-11-16T13:12:25.082Z,27.30
2022-11-16T13:14:59.133Z,27.20
2022-11-16T13:17:34.872Z,27.30
2022-11-16T13:20:36.074Z,27.30
2022-11-16T13:23:13.120Z,27.20
2022-11-16T13:26:02.589Z,27.20
2022-11-16T13:28:33.762Z,27.20
2022-11-16T13:31:16.806Z,27.20
2022-11-16T13:33:52.204Z,27.20
2022-11-16T13:36:47.259Z,27.20
2022-11-16T13:39:22.703Z,27.20
2022-11-16T13:42:09.076Z,27.20
2022-11-16T13:44:38.638Z,27.20
2022-11-16T13:47:24.425Z,27.20
2022-11-16T13:49:59.103Z,27.10
2022-11-16T13:53:40.924Z,27.10
2022-11-16T13:55:43.254Z,27.10
2022-11-16T13:58:21.780Z,27.10
2022-11-16T14:01:16.901Z,27.10
2022-11-16T14:03:53.181Z,27.10
2022-11-16T14:06:24.564Z,27.00
2022-11-16T14:08:56.980Z,27.10
2022-11-16T14:11:36.436Z,27.00
2022-11-16T14:14:11.695Z,27.00
2022-11-16T14:16:49.633Z,27.00
2022-11-16T14:19:48.807Z,27.00
2022-11-16T14:22:19.879Z,27.00
2022-11-16T14:25:03.238Z,27.00
2022-11-16T14:27:47.567Z,26.90
2022-11-16T14:30:26.344Z,26.90
2022-11-16T14:32:57.732Z,26.90
2022-11-16T14:35:42.830Z,26.80
2022-11-16T14:38:32.304Z,26.80
2022-11-16T14:41:04.429Z,26.80
2022-11-16T14:43:41.178Z,26.80
2022-11-16T14:46:18.810Z,26.80
2022-11-16T14:48:49.232Z,26.80
2022-11-16T14:51:23.612Z,26.80
2022-11-16T14:54:00.207Z,26.80
2022-11-16T14:56:29.517Z,26.80
2022-11-16T14:59:03.859Z,26.80
2022-11-16T15:01:40.506Z,26.80
2022-11-16T15:04:12.713Z,26.80
2022-11-16T15:06:47.598Z,26.80
2022-11-16T15:09:24.126Z,26.80
2022-11-16T15:12:13.506Z,26.80
2022-11-16T15:14:56.423Z,26.80
2022-11-16T15:17:31.830Z,26.70
2022-11-16T15:20:07.302Z,26.70
2022-11-16T15:22:43.112Z,26.70
2022-11-16T15:25:44.250Z,26.70
2022-11-16T15:28:23.485Z,26.70
2022-11-16T15:31:06.833Z,26.70
2022-11-16T15:33:42.076Z,26.60
2022-11-16T15:36:33.310Z,26.60
2022-11-16T15:39:05.609Z,26.60
2022-11-16T15:41:35.783Z,26.60
2022-11-16T15:44:14.584Z,26.60
2022-11-16T15:46:48.817Z,26.60
2022-11-16T15:49:38.833Z,26.60
2022-11-16T15:52:08.180Z,26.60
2022-11-16T15:54:57.673Z,26.60
2022-11-16T15:57:27.329Z,26.60
2022-11-16T15:59:58.717Z,26.60
2022-11-16T16:02:30.315Z,26.60
2022-11-16T16:04:59.773Z,26.50
2022-11-16T16:07:45.617Z,26.50
2022-11-16T16:10:24.319Z,26.50
2022-11-16T16:12:58.212Z,26.50
2022-11-16T16:15:31.718Z,26.50
2022-11-16T16:18:02.313Z,26.50
2022-11-16T16:20:33.722Z,26.50
2022-11-16T16:23:13.404Z,26.50
2022-11-16T16:25:47.434Z,26.50
2022-11-16T16:28:19.403Z,26.40
2022-11-16T16:30:52.312Z,26.40
2022-11-16T16:33:23.392Z,26.40
2022-11-16T16:35:52.724Z,26.40
2022-11-16T16:38:21.949Z,26.30
2022-11-16T16:40:51.121Z,26.30
2022-11-16T16:43:20.399Z,26.20
2022-11-16T16:45:49.687Z,26.20
2022-11-16T16:48:19.982Z,26.20
2022-11-16T16:50:49.261Z,26.20
2022-11-16T16:53:18.513Z,26.20
2022-11-16T16:55:50.315Z,26.20
2022-11-16T16:58:19.696Z,26.20
2022-11-16T17:01:22.826Z,26.20
2022-11-16T17:03:52.101Z,26.20
2022-11-16T17:06:21.470Z,26.20
2022-11-16T17:08:50.662Z,26.20
2022-11-16T17:11:19.967Z,26.20
2022-11-16T17:13:49.229Z,26.20
2022-11-16T17:16:18.541Z,26.20
2022-11-16T17:18:47.757Z,26.20
2022-11-16T17:21:17.099Z,26.20
2022-11-16T17:23:46.293Z,26.20
2022-11-16T17:26:15.551Z,26.10
2022-11-16T17:28:44.799Z,26.20
2022-11-16T17:31:15.157Z,26.10
2022-11-16T17:33:45.314Z,26.10
2022-11-16T17:36:15.708Z,26.10
2022-11-16T17:38:45.339Z,26.10
2022-11-16T17:41:16.686Z,26.10
2022-11-16T17:43:47.720Z,26.10
2022-11-16T17:46:19.103Z,26.10
2022-11-16T17:48:49.976Z,26.00
2022-11-16T17:51:21.470Z,26.00
2022-11-16T17:53:51.466Z,26.00
2022-11-16T17:56:23.209Z,26.00
2022-11-16T17:58:53.547Z,26.00
2022-11-16T18:01:24.262Z,26.00
2022-11-16T18:03:53.627Z,25.90
2022-11-16T18:06:24.746Z,25.90
2022-11-16T18:08:55.825Z,25.90
2022-11-16T18:11:27.209Z,25.90
2022-11-16T18:13:59.904Z,25.90
2022-11-16T18:16:32.133Z,25.90
2022-11-16T18:19:05.060Z,25.90
2022-11-16T18:21:40.637Z,25.90
2022-11-16T18:24:10.743Z,25.90
2022-11-16T18:26:41.836Z,25.90
2022-11-16T18:29:14.135Z,25.80
2022-11-16T18:31:43.661Z,25.80
2022-11-16T18:34:15.892Z,25.80
2022-11-16T18:36:45.482Z,25.90
2022-11-16T18:39:14.777Z,25.80
2022-11-16T18:41:53.376Z,25.80
2022-11-16T18:44:24.524Z,25.80
2022-11-16T18:46:53.747Z,25.80
2022-11-16T18:49:22.981Z,25.80
2022-11-16T18:51:52.210Z,25.80
2022-11-16T18:54:21.571Z,25.80
2022-11-16T18:56:50.769Z,25.80
2022-11-16T18:59:20.157Z,25.80
2022-11-16T19:01:49.397Z,25.80
2022-11-16T19:04:18.601Z,25.80
2022-11-16T19:06:48.082Z,25.80
2022-11-16T19:09:17.355Z,25.80
2022-11-16T19:11:46.694Z,25.80
2022-11-16T19:14:15.905Z,25.80
2022-11-16T19:16:53.980Z,25.80
2022-11-16T19:19:25.689Z,25.80
2022-11-16T19:21:55.165Z,25.80
2022-11-16T19:24:24.754Z,25.80
2022-11-16T19:26:54.225Z,25.80
2022-11-16T19:29:23.483Z,25.80
2022-11-16T19:31:52.689Z,25.80
2022-11-16T19:34:21.882Z,25.80
2022-11-16T19:36:51.107Z,25.80
2022-11-16T19:39:20.381Z,25.80
2022-11-16T19:41:49.760Z,25.70
2022-11-16T19:44:18.983Z,25.70
2022-11-16T19:46:48.210Z,25.70
2022-11-16T19:49:20.477Z,25.70
2022-11-16T19:51:51.145Z,25.70
2022-11-16T19:54:20.498Z,25.70
2022-11-16T19:56:54.880Z,25.70
2022-11-16T19:59:24.680Z,25.60
2022-11-16T20:01:53.969Z,25.60
2022-11-16T20:04:23.319Z,25.60
2022-11-16T20:06:53.101Z,25.60
2022-11-16T20:09:22.340Z,25.60
2022-11-16T20:11:51.584Z,25.60
2022-11-16T20:14:20.812Z,25.60
2022-11-16T20:16:51.790Z,25.60
2022-11-16T20:19:25.134Z,25.60
2022-11-16T20:21:54.919Z,25.60
2022-11-16T20:24:24.264Z,25.60
2022-11-16T20:26:53.529Z,25.60
2022-11-16T20:29:22.835Z,25.60
2022-11-16T20:31:52.067Z,25.60
2022-11-16T20:34:23.459Z,25.60
2022-11-16T20:36:52.747Z,25.60
2022-11-16T20:39:23.086Z,25.60
2022-11-16T20:41:52.371Z,25.60
2022-11-16T20:44:23.501Z,25.60
2022-11-16T20:46:54.274Z,25.60
2022-11-16T20:49:23.549Z,25.60
2022-11-16T20:51:53.011Z,25.60
2022-11-16T20:54:22.215Z,25.60
2022-11-16T20:56:51.931Z,25.60
2022-11-16T20:59:21.268Z,25.60
2022-11-16T21:01:53.778Z,25.60
2022-11-16T21:04:23.421Z,25.50
2022-11-16T21:06:52.666Z,25.50
2022-11-16T21:09:24.684Z,25.50
2022-11-16T21:12:13.736Z,25.40
2022-11-16T21:14:42.984Z,25.40
2022-11-16T21:17:12.174Z,25.40
2022-11-16T21:19:54.285Z,25.30
2022-11-16T21:22:32.411Z,25.30
2022-11-16T21:25:02.238Z,25.30
2022-11-16T21:27:31.476Z,25.30
2022-11-16T21:30:00.722Z,25.30
2022-11-16T21:32:29.934Z,25.30
2022-11-16T21:34:59.096Z,25.30
2022-11-16T21:37:28.346Z,25.30
2022-11-16T21:39:57.565Z,25.30
2022-11-16T21:42:26.768Z,25.30
2022-11-16T21:44:55.989Z,25.30
2022-11-16T21:47:25.294Z,25.40
2022-11-16T21:50:24.901Z,25.40
2022-11-16T21:52:43.722Z,25.40
2022-11-16T21:55:13.299Z,25.40
2022-11-16T21:57:42.494Z,25.40
2022-11-16T22:00:15.457Z,25.30
2022-11-16T22:02:44.688Z,25.40
2022-11-16T22:05:33.779Z,25.40
2022-11-16T22:08:08.123Z,25.40
2022-11-16T22:10:37.641Z,25.40
2022-11-16T22:13:07.173Z,25.40
2022-11-16T22:15:36.396Z,25.30
2022-11-16T22:18:05.843Z,25.30
2022-11-16T22:20:35.754Z,25.30
2022-11-16T22:23:05.163Z,25.30
2022-11-16T22:25:34.399Z,25.30
2022-11-16T22:28:20.246Z,25.30
2022-11-16T22:30:52.011Z,25.30
2022-11-16T22:33:21.871Z,25.30
2022-11-16T22:35:51.104Z,25.30
2022-11-16T22:38:20.282Z,25.30
2022-11-16T22:40:52.561Z,25.20
2022-11-16T22:43:23.416Z,25.30
2022-11-16T22:45:52.838Z,25.30
2022-11-16T22:48:22.107Z,25.30
2022-11-16T22:50:51.320Z,25.30
2022-11-16T22:53:20.546Z,25.30
2022-11-16T22:55:49.900Z,25.30
2022-11-16T22:58:19.138Z,25.20
2022-11-16T23:00:48.338Z,25.20
2022-11-16T23:03:18.334Z,25.20
2022-11-16T23:05:47.610Z,25.20
2022-11-16T23:08:16.781Z,25.20
2022-11-16T23:11:05.642Z,25.20
2022-11-16T23:13:54.420Z,25.20
2022-11-16T23:16:23.681Z,25.20
2022-11-16T23:18:52.929Z,25.20
2022-11-16T23:21:42.004Z,25.10
2022-11-16T23:24:33.096Z,25.10
2022-11-16T23:27:25.156Z,25.10
2022-11-16T23:29:54.897Z,25.00
2022-11-16T23:32:24.112Z,25.00
2022-11-16T23:34:53.339Z,25.00
2022-11-16T23:37:22.772Z,25.00
2022-11-16T23:39:52.075Z,25.00
2022-11-16T23:42:40.935Z,25.00
2022-11-16T23:45:10.615Z,25.00
2022-11-16T23:47:39.824Z,25.00
2022-11-16T23:50:09.301Z,25.00
2022-11-16T23:52:38.528Z,25.00
2022-11-16T23:55:08.265Z,25.00
2022-11-16T23:57:37.511Z,25.00
